createdAt,value
2018-03-25T00:01:01.378Z,40.75
2018-03-25T00:03:33.957Z,36.13
2018-03-25T00:06:05.930Z,35.45
2018-03-25T00:08:37.702Z,38.75
2018-03-25T00:11:05.749Z,34.72
2018-03-25T00:13:46.418Z,35.13
2018-03-25T00:16:28.161Z,36.50
2018-03-25T00:18:57.070Z,34.67
2018-03-25T00:21:42.454Z,36.45
2018-03-25T00:24:16.430Z,38.25
2018-03-25T00:26:45.345Z,31.02
2018-03-25T00:29:14.342Z,32.58
2018-03-25T00:31:42.350Z,35.53
2018-03-25T00:34:14.487Z,34.97
2018-03-25T00:36:46.054Z,39.28
2018-03-25T00:39:19.854Z,37.10
2018-03-25T00:41:47.865Z,46.97
2018-03-25T00:44:16.813Z,40.70
2018-03-25T00:46:48.157Z,40.10
2018-03-25T00:49:16.391Z,40.17
2018-03-25T00:51:48.697Z,42.42
2018-03-25T00:54:21.322Z,45.65
2018-03-25T00:56:50.602Z,42.00
2018-03-25T00:59:21.306Z,35.28
2018-03-25T01:01:54.449Z,35.97
2018-03-25T01:04:23.406Z,42.72
2018-03-25T01:07:01.461Z,35.35
2018-03-25T01:09:33.497Z,36.42
2018-03-25T01:12:02.278Z,40.25
2018-03-25T01:14:31.065Z,43.08
2018-03-25T01:16:59.866Z,32.53
2018-03-25T01:22:22.653Z,43.42
2018-03-25T01:24:51.832Z,37.05
2018-03-25T01:27:25.124Z,41.47
2018-03-25T01:29:54.325Z,40.30
2018-03-25T01:32:26.645Z,41.25
2018-03-25T01:34:54.677Z,43.97
2018-03-25T01:37:26.089Z,46.17
2018-03-25T01:39:57.907Z,39.90
2018-03-25T01:42:25.991Z,42.22
2018-03-25T01:44:54.012Z,37.35
2018-03-25T01:47:29.885Z,37.08
2018-03-25T01:50:02.995Z,40.83
2018-03-25T01:52:34.822Z,43.95
2018-03-25T01:55:04.574Z,39.88
2018-03-25T01:57:46.750Z,41.85
2018-03-25T02:00:19.041Z,45.60
2018-03-25T02:02:49.069Z,39.33
2018-03-25T02:05:20.629Z,37.97
2018-03-25T02:07:53.337Z,41.90
2018-03-25T02:10:26.090Z,43.33
2018-03-25T02:12:55.070Z,39.45
2018-03-25T02:15:23.081Z,45.33
2018-03-25T02:17:56.537Z,42.13
2018-03-25T02:20:24.590Z,42.35
2018-03-25T02:22:54.653Z,41.13
2018-03-25T02:25:35.669Z,45.42
2018-03-25T02:30:57.866Z,46.13
2018-03-25T02:33:31.025Z,52.92
2018-03-25T02:35:59.075Z,42.45
2018-03-25T02:38:37.394Z,49.92
2018-03-25T02:41:25.713Z,44.80
2018-03-25T02:44:01.761Z,43.58
2018-03-25T02:46:42.477Z,36.13
2018-03-25T02:49:26.285Z,50.08
2018-03-25T02:51:58.044Z,46.58
2018-03-25T02:54:38.706Z,47.47
2018-03-25T02:57:13.358Z,42.58
2018-03-25T02:59:47.177Z,46.80
2018-03-25T03:02:25.702Z,41.10
2018-03-25T03:05:06.199Z,46.83
2018-03-25T03:07:37.304Z,40.70
2018-03-25T03:13:04.934Z,41.83
2018-03-25T03:15:33.000Z,45.05
2018-03-25T03:18:10.317Z,48.25
2018-03-25T03:20:40.341Z,50.28
2018-03-25T03:23:09.377Z,54.88
2018-03-25T03:25:44.449Z,53.30
2018-03-25T03:28:13.489Z,50.70
2018-03-25T03:30:56.902Z,52.92
2018-03-25T03:33:28.053Z,48.38
2018-03-25T03:35:56.074Z,53.53
2018-03-25T03:38:32.273Z,45.33
2018-03-25T03:41:03.214Z,43.05
2018-03-25T03:43:32.210Z,42.22
2018-03-25T03:46:08.233Z,44.25
2018-03-25T03:48:47.073Z,42.20
2018-03-25T03:54:09.340Z,45.92
2018-03-25T03:56:47.765Z,47.30
2018-03-25T04:02:18.989Z,47.45
2018-03-25T04:04:47.097Z,38.70
2018-03-25T04:07:15.065Z,44.42
2018-03-25T04:09:58.136Z,47.88
2018-03-25T04:12:27.901Z,44.95
2018-03-25T04:17:50.157Z,41.60
2018-03-25T04:20:20.181Z,44.90
2018-03-25T04:22:50.904Z,44.38
2018-03-25T04:25:19.905Z,50.20
2018-03-25T04:27:54.589Z,48.05
2018-03-25T04:33:16.837Z,56.63
2018-03-25T04:35:46.800Z,48.25
2018-03-25T04:38:29.854Z,44.20
2018-03-25T04:43:54.000Z,49.10
2018-03-25T04:46:37.176Z,42.17
2018-03-25T04:49:08.470Z,44.05
2018-03-25T04:51:37.472Z,43.17
2018-03-25T04:54:06.452Z,43.92
2018-03-25T04:56:34.476Z,50.60
2018-03-25T04:59:04.449Z,48.95
2018-03-25T05:01:33.429Z,47.90
2018-03-25T05:04:05.616Z,46.40
2018-03-25T05:06:35.400Z,43.85
2018-03-25T05:09:04.429Z,51.28
2018-03-25T05:11:40.532Z,46.83
2018-03-25T05:14:15.461Z,44.00
2018-03-25T05:16:45.437Z,43.17
2018-03-25T05:19:15.252Z,50.50
2018-03-25T05:21:48.107Z,40.12
2018-03-25T05:24:16.133Z,49.45
2018-03-25T05:26:44.148Z,46.28
2018-03-25T05:29:12.161Z,42.22
2018-03-25T05:31:53.660Z,51.67
2018-03-25T05:34:26.240Z,48.05
2018-03-25T05:36:54.980Z,42.78
2018-03-25T05:39:25.685Z,44.35
2018-03-25T05:41:54.698Z,48.45
2018-03-25T05:44:22.712Z,41.10
2018-03-25T05:46:52.456Z,51.88
2018-03-25T05:49:21.437Z,55.28
2018-03-25T05:51:56.752Z,50.97
2018-03-25T05:54:24.756Z,42.47
2018-03-25T05:56:56.523Z,44.78
2018-03-25T05:59:29.088Z,44.42
2018-03-25T06:01:57.100Z,53.15
2018-03-25T06:04:25.881Z,55.28
2018-03-25T06:06:54.668Z,50.00
2018-03-25T06:09:25.372Z,50.85
2018-03-25T06:11:53.397Z,45.63
2018-03-25T06:14:21.404Z,44.45
2018-03-25T06:16:49.420Z,38.13
2018-03-25T06:19:18.192Z,42.85
2018-03-25T06:21:46.986Z,48.03
2018-03-25T06:24:20.752Z,48.42
2018-03-25T06:26:56.073Z,43.83
2018-03-25T06:29:34.880Z,45.85
2018-03-25T06:32:04.835Z,46.35
2018-03-25T06:34:32.864Z,43.13
2018-03-25T06:37:06.320Z,44.63
2018-03-25T06:39:38.048Z,38.35
2018-03-25T06:42:07.059Z,37.30
2018-03-25T06:44:35.084Z,45.47
2018-03-25T06:47:04.005Z,44.00
2018-03-25T06:52:39.400Z,43.03
2018-03-25T06:55:15.879Z,35.38
2018-03-25T06:57:51.968Z,38.40
2018-03-25T07:00:28.564Z,42.13
2018-03-25T07:03:06.236Z,41.42
2018-03-25T07:05:42.007Z,38.03
2018-03-25T07:08:10.059Z,39.72
2018-03-25T07:10:48.700Z,36.47
2018-03-25T07:13:17.708Z,34.03
2018-03-25T07:15:47.712Z,37.47
2018-03-25T07:18:22.631Z,42.13
2018-03-25T07:20:57.163Z,42.90
2018-03-25T07:23:26.123Z,40.15
2018-03-25T07:26:01.575Z,43.72
2018-03-25T07:28:30.605Z,44.90
2018-03-25T07:31:02.271Z,42.55
2018-03-25T07:33:30.288Z,44.08
2018-03-25T07:36:01.660Z,49.42
2018-03-25T07:38:29.680Z,46.35
2018-03-25T07:43:58.511Z,42.45
2018-03-25T07:52:26.151Z,45.03
2018-03-25T07:54:54.167Z,41.85
2018-03-25T07:57:32.380Z,42.58
2018-03-25T08:00:00.391Z,45.35
2018-03-25T08:02:29.403Z,37.33
2018-03-25T08:05:19.823Z,37.13
2018-03-25T08:07:47.823Z,43.30
2018-03-25T08:10:19.483Z,44.92
2018-03-25T08:13:09.119Z,36.28
2018-03-25T08:15:44.579Z,35.10
2018-03-25T08:18:13.495Z,35.97
2018-03-25T08:20:43.523Z,34.85
2018-03-25T08:23:12.499Z,33.42
2018-03-25T08:25:52.475Z,34.17
2018-03-25T08:28:20.495Z,36.38
2018-03-25T08:30:49.422Z,32.92
2018-03-25T08:33:25.472Z,36.63
2018-03-25T08:36:07.719Z,30.88
2018-03-25T08:38:36.747Z,29.02
2018-03-25T08:41:06.696Z,31.33
2018-03-25T08:46:33.861Z,32.40
2018-03-25T08:51:57.243Z,34.57
2018-03-25T08:54:33.483Z,33.97
2018-03-25T08:57:06.691Z,27.87
2018-03-25T08:59:34.711Z,29.70
2018-03-25T09:02:07.035Z,29.47
2018-03-25T09:04:35.278Z,25.03
2018-03-25T09:07:05.011Z,25.73
2018-03-25T09:09:33.019Z,23.70
2018-03-25T09:12:02.781Z,25.33
2018-03-25T09:14:30.799Z,27.63
2018-03-25T09:17:00.775Z,24.50
2018-03-25T09:19:40.887Z,26.17
2018-03-25T09:22:29.047Z,28.93
2018-03-25T09:25:07.454Z,28.60
2018-03-25T09:27:41.247Z,24.83
2018-03-25T09:30:13.363Z,24.13
2018-03-25T09:32:53.887Z,23.00
2018-03-25T09:35:36.155Z,26.90
2018-03-25T09:38:15.218Z,27.17
2018-03-25T09:40:43.279Z,24.80
2018-03-25T09:43:15.005Z,26.13
2018-03-25T09:45:48.894Z,23.87
2018-03-25T09:48:16.866Z,26.40
2018-03-25T09:50:48.198Z,22.43
2018-03-25T09:53:16.222Z,21.63
2018-03-25T09:55:44.270Z,26.90
2018-03-25T09:58:14.043Z,27.70
2018-03-25T10:00:53.975Z,21.33
2018-03-25T10:03:31.594Z,22.70
2018-03-25T10:06:00.577Z,22.50
2018-03-25T10:08:32.434Z,21.77
2018-03-25T10:11:19.568Z,17.97
2018-03-25T10:13:57.530Z,17.93
2018-03-25T10:16:36.114Z,25.53
2018-03-25T10:19:10.290Z,19.17
2018-03-25T10:21:45.534Z,17.57
2018-03-25T10:24:13.545Z,20.73
2018-03-25T10:26:44.346Z,20.43
2018-03-25T10:29:17.214Z,19.07
2018-03-25T10:31:49.813Z,20.23
2018-03-25T10:34:26.546Z,20.70
2018-03-25T10:36:58.074Z,19.47
2018-03-25T10:39:31.920Z,23.33
2018-03-25T10:42:13.049Z,22.00
2018-03-25T10:44:53.130Z,23.13
2018-03-25T10:47:25.031Z,21.33
2018-03-25T10:49:55.038Z,22.17
2018-03-25T10:52:28.642Z,21.07
2018-03-25T10:54:57.518Z,22.27
2018-03-25T10:57:30.015Z,23.67
2018-03-25T10:59:59.998Z,22.23
2018-03-25T11:02:36.414Z,21.37
2018-03-25T11:05:28.578Z,22.20
2018-03-25T11:07:57.281Z,25.83
2018-03-25T11:10:26.199Z,28.83
2018-03-25T11:12:56.853Z,25.40
2018-03-25T11:15:29.290Z,22.87
2018-03-25T11:18:05.502Z,21.90
2018-03-25T11:20:49.085Z,22.07
2018-03-25T11:23:28.922Z,24.10
2018-03-25T11:26:01.839Z,21.77
2018-03-25T11:28:35.545Z,25.80
2018-03-25T11:31:08.202Z,23.20
2018-03-25T11:33:49.154Z,22.40
2018-03-25T11:36:31.518Z,23.13
2018-03-25T11:39:07.718Z,24.00
2018-03-25T11:41:37.666Z,23.97
2018-03-25T11:44:12.993Z,23.50
2018-03-25T11:46:46.897Z,25.80
2018-03-25T11:49:19.898Z,23.10
2018-03-25T11:51:54.186Z,21.90
2018-03-25T11:54:22.197Z,22.23
2018-03-25T11:56:52.195Z,22.07
2018-03-25T11:59:31.513Z,24.00
2018-03-25T12:02:08.815Z,23.07
2018-03-25T12:04:42.445Z,22.93
2018-03-25T12:07:21.825Z,22.23
2018-03-25T12:09:49.889Z,24.10
2018-03-25T12:12:21.538Z,24.03
2018-03-25T12:14:56.033Z,23.23
2018-03-25T12:17:29.262Z,22.80
2018-03-25T12:20:03.682Z,22.60
2018-03-25T12:22:39.706Z,24.47
2018-03-25T12:25:08.694Z,23.60
2018-03-25T12:27:37.494Z,22.20
2018-03-25T12:30:08.201Z,24.97
2018-03-25T12:32:44.019Z,23.87
2018-03-25T12:35:12.038Z,21.73
2018-03-25T12:37:40.817Z,20.77
2018-03-25T12:40:10.838Z,22.50
2018-03-25T12:42:51.649Z,23.17
2018-03-25T12:45:19.665Z,21.47
2018-03-25T12:48:00.170Z,21.80
2018-03-25T12:50:35.925Z,23.40
2018-03-25T12:53:16.505Z,21.27
2018-03-25T12:55:44.941Z,21.70
2018-03-25T12:58:23.709Z,21.83
2018-03-25T13:00:52.713Z,22.53
2018-03-25T13:03:32.449Z,19.53
2018-03-25T13:06:02.237Z,22.30
2018-03-25T13:08:34.250Z,21.47
2018-03-25T13:11:05.989Z,23.10
2018-03-25T13:13:36.017Z,21.60
2018-03-25T13:16:09.305Z,22.27
2018-03-25T13:18:38.289Z,20.97
2018-03-25T13:21:06.306Z,21.10
2018-03-25T13:23:36.277Z,21.80
2018-03-25T13:26:06.313Z,23.03
2018-03-25T13:28:34.334Z,22.73
2018-03-25T13:31:02.344Z,22.13
2018-03-25T13:33:30.380Z,21.10
2018-03-25T13:35:58.395Z,20.97
2018-03-25T13:38:27.399Z,22.30
2018-03-25T13:41:02.912Z,20.80
2018-03-25T13:43:42.049Z,20.53
2018-03-25T13:46:10.065Z,20.40
2018-03-25T13:48:43.004Z,20.90
2018-03-25T13:51:11.988Z,22.57
2018-03-25T13:53:39.993Z,21.97
2018-03-25T13:56:16.908Z,21.80
2018-03-25T13:58:49.981Z,19.50
2018-03-25T14:01:26.677Z,20.23
2018-03-25T14:04:05.933Z,21.17
2018-03-25T14:06:34.953Z,21.57
2018-03-25T14:09:02.953Z,20.90
2018-03-25T14:11:49.053Z,19.80
2018-03-25T14:14:22.968Z,19.93
2018-03-25T14:16:58.528Z,20.10
2018-03-25T14:22:22.428Z,19.70
2018-03-25T14:24:58.291Z,20.37
2018-03-25T14:27:33.012Z,20.20
2018-03-25T14:30:06.034Z,20.77
2018-03-25T14:32:34.036Z,19.80
2018-03-25T14:35:03.069Z,19.97
2018-03-25T14:37:41.644Z,20.10
2018-03-25T14:40:19.268Z,20.50
2018-03-25T14:42:47.284Z,19.43
2018-03-25T14:45:15.337Z,19.90
2018-03-25T14:47:44.300Z,20.10
2018-03-25T14:50:13.301Z,20.73
2018-03-25T14:52:41.332Z,19.27
2018-03-25T14:55:11.296Z,18.87
2018-03-25T14:57:40.284Z,18.67
2018-03-25T15:00:09.209Z,18.83
2018-03-25T15:02:39.279Z,16.63
2018-03-25T15:05:09.359Z,16.80
2018-03-25T15:07:40.038Z,20.10
2018-03-25T15:10:14.440Z,18.63
2018-03-25T15:12:44.364Z,16.67
2018-03-25T15:15:12.372Z,17.10
2018-03-25T15:17:43.057Z,17.77
2018-03-25T15:20:11.072Z,16.60
2018-03-25T15:22:39.848Z,18.70
2018-03-25T15:25:07.864Z,18.07
2018-03-25T15:27:42.284Z,17.97
2018-03-25T15:30:13.256Z,17.37
2018-03-25T15:32:42.281Z,19.50
2018-03-25T15:35:12.972Z,20.00
2018-03-25T15:37:44.536Z,16.90
2018-03-25T15:40:13.521Z,21.50
2018-03-25T15:42:41.528Z,19.83
2018-03-25T15:45:10.383Z,21.40
2018-03-25T15:47:44.390Z,16.87
2018-03-25T15:50:13.401Z,20.77
2018-03-25T15:52:41.402Z,17.00
2018-03-25T15:55:10.174Z,20.17
2018-03-25T15:57:38.953Z,17.03
2018-03-25T16:00:08.947Z,19.13
2018-03-25T16:02:37.403Z,16.17
2018-03-25T16:05:07.344Z,17.83
2018-03-25T16:07:36.348Z,18.40
2018-03-25T16:10:05.336Z,18.40
2018-03-25T16:12:38.624Z,18.83
2018-03-25T16:15:06.848Z,20.30
2018-03-25T16:17:34.856Z,20.40
2018-03-25T16:20:10.988Z,20.43
2018-03-25T16:22:39.008Z,18.40
2018-03-25T16:25:09.032Z,19.10
2018-03-25T16:27:39.749Z,21.50
2018-03-25T16:30:11.295Z,16.93
2018-03-25T16:32:39.344Z,20.17
2018-03-25T16:35:10.620Z,19.23
2018-03-25T16:37:45.144Z,20.50
2018-03-25T16:43:16.200Z,24.70
2018-03-25T16:45:45.208Z,24.17
2018-03-25T16:48:17.572Z,25.67
2018-03-25T16:51:00.516Z,20.53
2018-03-25T16:53:31.185Z,24.80
2018-03-25T16:56:00.316Z,24.57
2018-03-25T16:58:29.453Z,22.57
2018-03-25T17:01:18.536Z,22.87
2018-03-25T17:03:46.556Z,23.90
2018-03-25T17:06:15.324Z,22.27
2018-03-25T17:08:43.352Z,21.60
2018-03-25T17:11:11.417Z,22.37
2018-03-25T17:13:42.152Z,22.58
2018-03-25T17:16:11.176Z,22.83
2018-03-25T17:18:39.231Z,26.70
2018-03-25T17:21:07.208Z,26.52
2018-03-25T17:23:36.200Z,22.77
2018-03-25T17:26:07.564Z,28.77
2018-03-25T17:28:41.116Z,23.48
2018-03-25T17:31:09.132Z,22.87
2018-03-25T17:33:42.636Z,23.30
2018-03-25T17:36:14.196Z,24.70
2018-03-25T17:38:52.383Z,24.17
2018-03-25T17:41:36.776Z,26.77
2018-03-25T17:44:13.164Z,24.48
2018-03-25T17:46:59.496Z,30.58
2018-03-25T17:49:33.316Z,25.88
2018-03-25T17:52:08.308Z,24.48
2018-03-25T17:54:39.730Z,23.65
2018-03-25T17:57:19.194Z,20.70
2018-03-25T17:59:49.239Z,26.02
2018-03-25T18:02:18.233Z,21.10
2018-03-25T18:04:52.263Z,23.85
2018-03-25T18:07:20.280Z,27.85
2018-03-25T18:09:49.200Z,36.20
2018-03-25T18:12:18.226Z,28.70
2018-03-25T18:14:46.228Z,30.75
2018-03-25T18:17:33.465Z,31.20
2018-03-25T18:19:44.281Z,26.20
2018-03-25T18:22:19.084Z,30.52
2018-03-25T18:24:47.095Z,25.85
2018-03-25T18:27:17.912Z,30.33
2018-03-25T18:29:57.408Z,30.40
2018-03-25T18:32:27.344Z,30.90
2018-03-25T18:34:55.371Z,26.37
2018-03-25T18:37:33.916Z,31.77
2018-03-25T18:40:08.636Z,30.27
2018-03-25T18:42:36.727Z,32.25
2018-03-25T18:45:04.726Z,29.23
2018-03-25T18:47:44.932Z,33.97
2018-03-25T18:50:12.968Z,27.42
2018-03-25T18:52:42.952Z,27.25
2018-03-25T18:55:16.362Z,28.27
2018-03-25T18:57:49.019Z,30.77
2018-03-25T19:00:24.326Z,29.92
2018-03-25T19:02:58.491Z,28.67
2018-03-25T19:05:26.865Z,33.17
2018-03-25T19:07:54.908Z,30.58
2018-03-25T19:10:22.985Z,29.65
2018-03-25T19:12:53.488Z,28.02
2018-03-25T19:15:27.319Z,28.45
2018-03-25T19:18:01.808Z,31.95
2018-03-25T19:20:31.611Z,33.78
2018-03-25T19:23:01.572Z,33.05
2018-03-25T19:25:29.588Z,31.73
2018-03-25T19:27:58.527Z,34.42
2018-03-25T19:30:28.435Z,29.08
2018-03-25T19:33:03.888Z,28.40
2018-03-25T19:35:32.891Z,36.63
2018-03-25T19:38:01.892Z,31.73
2018-03-25T19:40:29.908Z,26.08
2018-03-25T19:42:57.915Z,24.42
2018-03-25T19:45:25.932Z,24.67
2018-03-25T19:47:54.867Z,26.12
2018-03-25T19:50:22.891Z,24.92
2018-03-25T19:52:51.683Z,25.95
2018-03-25T19:55:19.679Z,23.00
2018-03-25T19:57:47.723Z,24.70
2018-03-25T20:00:16.662Z,31.80
2018-03-25T20:02:44.655Z,33.40
2018-03-25T20:05:16.259Z,30.25
2018-03-25T20:07:44.306Z,29.40
2018-03-25T20:10:12.328Z,31.50
2018-03-25T20:12:41.362Z,31.98
2018-03-25T20:15:10.319Z,35.70
2018-03-25T20:17:42.611Z,35.05
2018-03-25T20:20:12.619Z,30.88
2018-03-25T20:22:40.650Z,30.70
2018-03-25T20:25:14.595Z,35.47
2018-03-25T20:27:42.675Z,32.28
2018-03-25T20:30:19.715Z,35.05
2018-03-25T20:32:49.666Z,34.72
2018-03-25T20:35:31.682Z,27.40
2018-03-25T20:41:08.933Z,39.70
2018-03-25T20:43:42.467Z,37.83
2018-03-25T20:46:13.399Z,47.88
2018-03-25T20:48:51.147Z,49.08
2018-03-25T20:51:30.795Z,44.55
2018-03-25T20:54:08.375Z,34.38
2018-03-25T20:56:39.687Z,21.73
2018-03-25T20:59:12.359Z,26.60
2018-03-25T21:01:50.475Z,21.15
2018-03-25T21:04:27.470Z,23.62
2018-03-25T21:07:08.115Z,27.02
2018-03-25T21:09:40.083Z,26.83
2018-03-25T21:18:01.915Z,24.35
2018-03-25T21:20:34.430Z,29.27
2018-03-25T21:23:06.987Z,29.80
2018-03-25T21:31:31.354Z,39.60
2018-03-25T21:34:05.547Z,31.75
2018-03-25T21:36:39.335Z,36.75
2018-03-25T21:39:09.850Z,34.35
2018-03-25T21:41:42.778Z,26.77
2018-03-25T21:44:28.782Z,29.50
2018-03-25T21:46:56.806Z,27.95
2018-03-25T21:49:27.950Z,34.33
2018-03-25T21:52:00.631Z,32.45
2018-03-25T21:54:35.378Z,35.35
2018-03-25T21:57:16.778Z,36.28
2018-03-25T21:59:45.863Z,29.52
2018-03-25T22:02:14.790Z,38.58
2018-03-25T22:04:44.802Z,36.05
2018-03-25T22:07:19.812Z,36.05
2018-03-25T22:09:51.826Z,32.17
2018-03-25T22:12:20.794Z,30.88
2018-03-25T22:14:54.994Z,31.83
2018-03-25T22:17:24.046Z,28.52
2018-03-25T22:19:52.138Z,27.58
2018-03-25T22:22:21.076Z,34.13
2018-03-25T22:24:51.078Z,31.45
2018-03-25T22:27:25.583Z,29.23
2018-03-25T22:29:55.726Z,36.42
2018-03-25T22:32:36.230Z,32.38
2018-03-25T22:35:05.994Z,32.90
2018-03-25T22:37:35.006Z,34.47
2018-03-25T22:40:03.985Z,33.55
2018-03-25T22:42:32.890Z,28.65
2018-03-25T22:45:04.614Z,33.10
2018-03-25T22:47:39.014Z,35.00
2018-03-25T22:50:10.386Z,29.58
2018-03-25T22:52:38.401Z,33.03
2018-03-25T22:55:07.198Z,31.92
2018-03-25T22:57:39.341Z,28.02
2018-03-25T23:00:18.737Z,31.45
2018-03-25T23:02:48.682Z,30.52
2018-03-25T23:05:16.698Z,27.50
2018-03-25T23:07:44.730Z,34.58
2018-03-25T23:10:15.458Z,28.90
2018-03-25T23:12:51.065Z,28.38
2018-03-25T23:15:20.988Z,35.33
2018-03-25T23:17:49.013Z,38.95
2018-03-25T23:20:21.650Z,33.33
2018-03-25T23:22:50.641Z,34.17
2018-03-25T23:25:18.701Z,35.13
2018-03-25T23:27:50.785Z,30.20
2018-03-25T23:30:19.781Z,30.23
2018-03-25T23:32:56.097Z,32.75
2018-03-25T23:35:27.885Z,31.35
2018-03-25T23:37:57.913Z,31.10
2018-03-25T23:40:31.157Z,33.58
2018-03-25T23:43:05.585Z,33.50
2018-03-25T23:45:40.336Z,31.50
2018-03-25T23:48:12.497Z,39.03
2018-03-25T23:50:42.470Z,36.75
2018-03-25T23:53:12.450Z,37.00
2018-03-25T23:56:01.149Z,30.42
2018-03-25T23:58:30.093Z,37.72
